Weather at Lester B. Pearson International Airport

Public forecast

Using degrees Celsius for public forecast. Weather courtesy of forecast.io.

Current aviation weather report (METAR) for Lester B. Pearson International Airport

Retrieved 2021/04/20 16:00 UTC (48 minutes ago):

CYYZ 201600Z 28016KT 15SM BKN035 04/M04 A2996 RMK SC7 SLP152

Aviation forecast (TAF) for Lester B. Pearson International Airport

Retrieved 2021/04/20 15:42 UTC (1 hour ago):

TAF CYYZ 201439Z 2015/2118 27012G22KT P6SM BKN030 BKN120 TEMPO 2017/2019 SCT040 BKN120 FM201900 28012G22KT P6SM SCT040 BKN100 BECMG 2021/2023 30012KT FM210200 35010KT P6SM OVC100 FM210500 02008KT 4SM -SN OVC050 FM210800 36008KT 2SM -SN BKN020 OVC040 FM211400 34010G20KT 4SM -SN SCT020 BKN040 FM211600 33010G20KT P6SM BKN040 RMK NXT FCST BY 201800Z